sensor_id;sensor_type;location;lat;lon;timestamp;temperature;humidity
48535;DHT22;34323;52.022;5.686;2022-07-23T00:00:14;23.50;99.90
48535;DHT22;34323;52.022;5.686;2022-07-23T00:02:40;23.40;99.90
48535;DHT22;34323;52.022;5.686;2022-07-23T00:05:06;23.30;99.90
48535;DHT22;34323;52.022;5.686;2022-07-23T00:07:32;23.20;99.90
48535;DHT22;34323;52.022;5.686;2022-07-23T00:09:58;23.00;99.90
48535;DHT22;34323;52.022;5.686;2022-07-23T00:12:24;23.20;99.90
48535;DHT22;34323;52.022;5.686;2022-07-23T00:14:50;22.90;99.90
48535;DHT22;34323;52.022;5.686;2022-07-23T00:17:15;23.10;99.90
48535;DHT22;34323;52.022;5.686;2022-07-23T00:19:41;23.20;99.90
48535;DHT22;34323;52.022;5.686;2022-07-23T00:22:07;23.10;99.90
48535;DHT22;34323;52.022;5.686;2022-07-23T00:24:33;22.80;99.90
48535;DHT22;34323;52.022;5.686;2022-07-23T00:26:59;22.60;99.90
48535;DHT22;34323;52.022;5.686;2022-07-23T00:29:24;22.90;99.90
48535;DHT22;34323;52.022;5.686;2022-07-23T00:31:50;22.90;99.90
48535;DHT22;34323;52.022;5.686;2022-07-23T00:34:16;22.80;99.90
48535;DHT22;34323;52.022;5.686;2022-07-23T00:36:41;22.80;99.90
48535;DHT22;34323;52.022;5.686;2022-07-23T00:39:07;22.80;99.90
48535;DHT22;34323;52.022;5.686;2022-07-23T00:41:33;22.70;99.90
48535;DHT22;34323;52.022;5.686;2022-07-23T00:44:16;22.80;99.90
48535;DHT22;34323;52.022;5.686;2022-07-23T00:46:47;22.90;99.90
48535;DHT22;34323;52.022;5.686;2022-07-23T00:49:13;22.70;99.90
48535;DHT22;34323;52.022;5.686;2022-07-23T00:51:39;22.70;99.90
48535;DHT22;34323;52.022;5.686;2022-07-23T00:54:04;22.70;99.90
48535;DHT22;34323;52.022;5.686;2022-07-23T00:56:30;22.80;99.90
48535;DHT22;34323;52.022;5.686;2022-07-23T00:58:57;22.70;99.90
48535;DHT22;34323;52.022;5.686;2022-07-23T01:01:23;22.60;99.90
48535;DHT22;34323;52.022;5.686;2022-07-23T01:03:49;22.40;99.90
48535;DHT22;34323;52.022;5.686;2022-07-23T01:06:14;22.40;99.90
48535;DHT22;34323;52.022;5.686;2022-07-23T01:08:41;22.60;99.90
48535;DHT22;34323;52.022;5.686;2022-07-23T01:11:08;22.60;99.90
48535;DHT22;34323;52.022;5.686;2022-07-23T01:13:34;22.50;99.90
48535;DHT22;34323;52.022;5.686;2022-07-23T01:16:00;22.60;99.90
48535;DHT22;34323;52.022;5.686;2022-07-23T01:18:26;22.40;99.90
48535;DHT22;34323;52.022;5.686;2022-07-23T01:20:51;22.70;99.90
48535;DHT22;34323;52.022;5.686;2022-07-23T01:23:17;22.70;99.90
48535;DHT22;34323;52.022;5.686;2022-07-23T01:25:52;22.60;99.90
48535;DHT22;34323;52.022;5.686;2022-07-23T01:28:18;22.40;99.90
48535;DHT22;34323;52.022;5.686;2022-07-23T01:30:46;22.00;99.90
48535;DHT22;34323;52.022;5.686;2022-07-23T01:33:12;22.30;99.90
48535;DHT22;34323;52.022;5.686;2022-07-23T01:35:37;22.40;99.90
48535;DHT22;34323;52.022;5.686;2022-07-23T01:38:03;22.10;99.90
48535;DHT22;34323;52.022;5.686;2022-07-23T01:40:29;22.20;99.90
48535;DHT22;34323;52.022;5.686;2022-07-23T01:42:55;22.40;99.90
48535;DHT22;34323;52.022;5.686;2022-07-23T01:45:21;22.40;99.90
48535;DHT22;34323;52.022;5.686;2022-07-23T01:47:47;22.20;99.90
48535;DHT22;34323;52.022;5.686;2022-07-23T01:50:13;22.40;99.90
48535;DHT22;34323;52.022;5.686;2022-07-23T01:52:39;22.30;99.90
48535;DHT22;34323;52.022;5.686;2022-07-23T01:55:05;22.40;99.90
48535;DHT22;34323;52.022;5.686;2022-07-23T01:57:32;22.00;99.90
48535;DHT22;34323;52.022;5.686;2022-07-23T01:59:58;22.00;99.90
48535;DHT22;34323;52.022;5.686;2022-07-23T02:02:23;22.20;99.90
48535;DHT22;34323;52.022;5.686;2022-07-23T02:04:49;22.40;99.90
48535;DHT22;34323;52.022;5.686;2022-07-23T02:07:15;22.40;99.90
48535;DHT22;34323;52.022;5.686;2022-07-23T02:09:41;22.40;99.90
48535;DHT22;34323;52.022;5.686;2022-07-23T02:12:07;22.10;99.90
48535;DHT22;34323;52.022;5.686;2022-07-23T02:14:33;22.10;99.90
48535;DHT22;34323;52.022;5.686;2022-07-23T02:16:59;22.10;99.90
48535;DHT22;34323;52.022;5.686;2022-07-23T02:19:24;22.20;99.90
48535;DHT22;34323;52.022;5.686;2022-07-23T02:21:50;22.30;99.90
48535;DHT22;34323;52.022;5.686;2022-07-23T02:24:16;22.30;99.90
48535;DHT22;34323;52.022;5.686;2022-07-23T02:26:42;22.10;99.90
48535;DHT22;34323;52.022;5.686;2022-07-23T02:29:08;21.90;99.90
48535;DHT22;34323;52.022;5.686;2022-07-23T02:31:34;22.00;99.90
48535;DHT22;34323;52.022;5.686;2022-07-23T02:34:00;22.30;99.90
48535;DHT22;34323;52.022;5.686;2022-07-23T02:36:26;22.20;99.90
48535;DHT22;34323;52.022;5.686;2022-07-23T02:38:52;22.00;99.90
48535;DHT22;34323;52.022;5.686;2022-07-23T02:41:18;22.10;99.90
48535;DHT22;34323;52.022;5.686;2022-07-23T02:43:44;22.00;99.90
48535;DHT22;34323;52.022;5.686;2022-07-23T02:46:10;21.90;99.90
48535;DHT22;34323;52.022;5.686;2022-07-23T02:48:35;22.10;99.90
48535;DHT22;34323;52.022;5.686;2022-07-23T02:51:01;22.20;99.90
48535;DHT22;34323;52.022;5.686;2022-07-23T02:53:27;22.10;99.90
48535;DHT22;34323;52.022;5.686;2022-07-23T02:55:52;22.10;99.90
48535;DHT22;34323;52.022;5.686;2022-07-23T02:58:18;22.10;99.90
48535;DHT22;34323;52.022;5.686;2022-07-23T03:00:44;22.00;99.90
48535;DHT22;34323;52.022;5.686;2022-07-23T03:03:09;22.00;99.90
48535;DHT22;34323;52.022;5.686;2022-07-23T03:05:36;22.00;99.90
48535;DHT22;34323;52.022;5.686;2022-07-23T03:08:01;21.60;99.90
48535;DHT22;34323;52.022;5.686;2022-07-23T03:10:27;21.50;99.90
48535;DHT22;34323;52.022;5.686;2022-07-23T03:12:53;21.70;99.90
48535;DHT22;34323;52.022;5.686;2022-07-23T03:15:18;21.70;99.90
48535;DHT22;34323;52.022;5.686;2022-07-23T03:17:44;21.80;99.90
48535;DHT22;34323;52.022;5.686;2022-07-23T03:20:10;21.60;99.90
48535;DHT22;34323;52.022;5.686;2022-07-23T03:22:36;21.70;99.90
48535;DHT22;34323;52.022;5.686;2022-07-23T03:25:02;21.70;99.90
48535;DHT22;34323;52.022;5.686;2022-07-23T03:27:29;21.70;99.90
48535;DHT22;34323;52.022;5.686;2022-07-23T03:29:56;21.70;99.90
48535;DHT22;34323;52.022;5.686;2022-07-23T03:32:23;21.60;99.90
48535;DHT22;34323;52.022;5.686;2022-07-23T03:34:49;21.60;99.90
48535;DHT22;34323;52.022;5.686;2022-07-23T03:37:16;21.40;99.90
48535;DHT22;34323;52.022;5.686;2022-07-23T03:39:42;21.50;99.90
48535;DHT22;34323;52.022;5.686;2022-07-23T03:42:08;21.70;99.90
48535;DHT22;34323;52.022;5.686;2022-07-23T03:44:34;21.40;99.90
48535;DHT22;34323;52.022;5.686;2022-07-23T03:47:03;21.40;99.90
48535;DHT22;34323;52.022;5.686;2022-07-23T03:49:29;21.50;99.90
48535;DHT22;34323;52.022;5.686;2022-07-23T03:51:54;21.60;99.90
48535;DHT22;34323;52.022;5.686;2022-07-23T03:54:20;21.40;99.90
48535;DHT22;34323;52.022;5.686;2022-07-23T03:56:46;21.20;99.90
48535;DHT22;34323;52.022;5.686;2022-07-23T03:59:12;21.30;99.90
48535;DHT22;34323;52.022;5.686;2022-07-23T04:01:37;21.20;99.90
48535;DHT22;34323;52.022;5.686;2022-07-23T04:04:03;21.30;99.90
48535;DHT22;34323;52.022;5.686;2022-07-23T04:06:29;21.40;99.90
48535;DHT22;34323;52.022;5.686;2022-07-23T04:08:55;21.30;99.90
48535;DHT22;34323;52.022;5.686;2022-07-23T04:11:21;21.20;99.90
48535;DHT22;34323;52.022;5.686;2022-07-23T04:13:46;21.00;99.90
48535;DHT22;34323;52.022;5.686;2022-07-23T04:16:12;20.90;99.90
48535;DHT22;34323;52.022;5.686;2022-07-23T04:18:38;21.00;99.90
48535;DHT22;34323;52.022;5.686;2022-07-23T04:21:03;21.10;99.90
48535;DHT22;34323;52.022;5.686;2022-07-23T04:23:29;21.20;99.90
48535;DHT22;34323;52.022;5.686;2022-07-23T04:25:55;21.30;99.90
48535;DHT22;34323;52.022;5.686;2022-07-23T04:28:21;21.20;99.90
48535;DHT22;34323;52.022;5.686;2022-07-23T04:30:46;21.00;99.90
48535;DHT22;34323;52.022;5.686;2022-07-23T04:33:12;20.90;99.90
48535;DHT22;34323;52.022;5.686;2022-07-23T04:35:38;20.90;99.90
48535;DHT22;34323;52.022;5.686;2022-07-23T04:38:04;20.80;99.90
48535;DHT22;34323;52.022;5.686;2022-07-23T04:40:30;20.90;99.90
48535;DHT22;34323;52.022;5.686;2022-07-23T04:42:56;21.10;99.90
48535;DHT22;34323;52.022;5.686;2022-07-23T04:45:22;21.10;99.90
48535;DHT22;34323;52.022;5.686;2022-07-23T04:47:51;20.90;99.90
48535;DHT22;34323;52.022;5.686;2022-07-23T04:50:17;20.60;99.90
48535;DHT22;34323;52.022;5.686;2022-07-23T04:52:49;20.80;99.90
48535;DHT22;34323;52.022;5.686;2022-07-23T04:55:15;20.90;99.90
48535;DHT22;34323;52.022;5.686;2022-07-23T04:57:41;21.00;99.90
48535;DHT22;34323;52.022;5.686;2022-07-23T05:00:07;20.60;99.90
48535;DHT22;34323;52.022;5.686;2022-07-23T05:02:33;20.90;99.90
48535;DHT22;34323;52.022;5.686;2022-07-23T05:04:59;20.90;99.90
48535;DHT22;34323;52.022;5.686;2022-07-23T05:07:25;20.70;99.90
48535;DHT22;34323;52.022;5.686;2022-07-23T05:09:51;21.20;99.90
48535;DHT22;34323;52.022;5.686;2022-07-23T05:12:17;21.20;99.90
48535;DHT22;34323;52.022;5.686;2022-07-23T05:14:42;21.20;99.90
48535;DHT22;34323;52.022;5.686;2022-07-23T05:17:08;21.20;99.90
48535;DHT22;34323;52.022;5.686;2022-07-23T05:19:35;21.00;99.90
48535;DHT22;34323;52.022;5.686;2022-07-23T05:22:01;20.90;99.90
48535;DHT22;34323;52.022;5.686;2022-07-23T05:24:27;20.80;99.90
48535;DHT22;34323;52.022;5.686;2022-07-23T05:26:53;20.90;99.90
48535;DHT22;34323;52.022;5.686;2022-07-23T05:29:19;20.90;99.90
48535;DHT22;34323;52.022;5.686;2022-07-23T05:31:45;20.90;99.90
48535;DHT22;34323;52.022;5.686;2022-07-23T05:34:11;20.90;99.90
48535;DHT22;34323;52.022;5.686;2022-07-23T05:36:36;21.10;99.90
48535;DHT22;34323;52.022;5.686;2022-07-23T05:39:03;21.10;99.90
48535;DHT22;34323;52.022;5.686;2022-07-23T05:41:29;21.10;99.90
48535;DHT22;34323;52.022;5.686;2022-07-23T05:43:54;21.20;99.90
48535;DHT22;34323;52.022;5.686;2022-07-23T05:46:20;21.20;99.90
48535;DHT22;34323;52.022;5.686;2022-07-23T05:48:46;21.10;99.90
48535;DHT22;34323;52.022;5.686;2022-07-23T05:51:19;21.00;99.90
48535;DHT22;34323;52.022;5.686;2022-07-23T05:53:46;20.80;99.90
48535;DHT22;34323;52.022;5.686;2022-07-23T05:56:12;20.80;99.90
48535;DHT22;34323;52.022;5.686;2022-07-23T05:58:38;20.80;99.90
48535;DHT22;34323;52.022;5.686;2022-07-23T06:01:04;20.80;99.90
48535;DHT22;34323;52.022;5.686;2022-07-23T06:03:29;20.80;99.90
48535;DHT22;34323;52.022;5.686;2022-07-23T06:05:55;20.90;99.90
48535;DHT22;34323;52.022;5.686;2022-07-23T06:08:21;20.90;99.90
48535;DHT22;34323;52.022;5.686;2022-07-23T06:10:47;20.90;99.90
48535;DHT22;34323;52.022;5.686;2022-07-23T06:13:13;20.70;99.90
48535;DHT22;34323;52.022;5.686;2022-07-23T06:15:39;20.90;99.90
48535;DHT22;34323;52.022;5.686;2022-07-23T06:18:04;21.10;99.90
48535;DHT22;34323;52.022;5.686;2022-07-23T06:20:30;21.30;99.90
48535;DHT22;34323;52.022;5.686;2022-07-23T06:22:56;21.10;99.90
48535;DHT22;34323;52.022;5.686;2022-07-23T06:25:22;20.90;99.90
48535;DHT22;34323;52.022;5.686;2022-07-23T06:27:48;20.70;99.90
48535;DHT22;34323;52.022;5.686;2022-07-23T06:30:15;20.70;99.90
48535;DHT22;34323;52.022;5.686;2022-07-23T06:32:43;20.70;99.90
48535;DHT22;34323;52.022;5.686;2022-07-23T06:35:09;20.40;99.90
48535;DHT22;34323;52.022;5.686;2022-07-23T06:37:35;20.20;99.90
48535;DHT22;34323;52.022;5.686;2022-07-23T06:40:01;20.20;99.90
48535;DHT22;34323;52.022;5.686;2022-07-23T06:42:26;20.30;99.90
48535;DHT22;34323;52.022;5.686;2022-07-23T06:44:52;20.40;99.90
48535;DHT22;34323;52.022;5.686;2022-07-23T06:47:18;20.20;99.90
48535;DHT22;34323;52.022;5.686;2022-07-23T06:49:44;20.20;99.90
48535;DHT22;34323;52.022;5.686;2022-07-23T06:52:09;20.20;99.90
48535;DHT22;34323;52.022;5.686;2022-07-23T06:54:35;20.30;99.90
48535;DHT22;34323;52.022;5.686;2022-07-23T06:57:01;20.30;99.90
48535;DHT22;34323;52.022;5.686;2022-07-23T06:59:27;20.50;99.90
48535;DHT22;34323;52.022;5.686;2022-07-23T07:01:52;20.60;99.90
48535;DHT22;34323;52.022;5.686;2022-07-23T07:04:18;20.90;99.90
48535;DHT22;34323;52.022;5.686;2022-07-23T07:06:44;20.90;99.90
48535;DHT22;34323;52.022;5.686;2022-07-23T07:09:09;21.00;99.90
48535;DHT22;34323;52.022;5.686;2022-07-23T07:11:35;21.30;99.90
48535;DHT22;34323;52.022;5.686;2022-07-23T07:14:01;21.20;99.90
48535;DHT22;34323;52.022;5.686;2022-07-23T07:16:27;21.60;99.90
48535;DHT22;34323;52.022;5.686;2022-07-23T07:18:52;21.60;99.90
48535;DHT22;34323;52.022;5.686;2022-07-23T07:21:18;21.70;99.90
48535;DHT22;34323;52.022;5.686;2022-07-23T07:23:44;21.60;99.90
48535;DHT22;34323;52.022;5.686;2022-07-23T07:26:10;22.00;99.90
48535;DHT22;34323;52.022;5.686;2022-07-23T07:28:35;21.90;99.90
48535;DHT22;34323;52.022;5.686;2022-07-23T07:31:01;21.70;99.90
48535;DHT22;34323;52.022;5.686;2022-07-23T07:33:27;21.90;99.90
48535;DHT22;34323;52.022;5.686;2022-07-23T07:35:53;21.80;99.90
48535;DHT22;34323;52.022;5.686;2022-07-23T07:38:19;21.80;99.90
48535;DHT22;34323;52.022;5.686;2022-07-23T07:40:45;21.60;99.90
48535;DHT22;34323;52.022;5.686;2022-07-23T07:43:10;21.30;99.90
48535;DHT22;34323;52.022;5.686;2022-07-23T07:45:36;21.70;99.90
48535;DHT22;34323;52.022;5.686;2022-07-23T07:48:02;21.90;99.90
48535;DHT22;34323;52.022;5.686;2022-07-23T07:50:28;21.70;99.90
48535;DHT22;34323;52.022;5.686;2022-07-23T07:52:54;22.30;99.90
48535;DHT22;34323;52.022;5.686;2022-07-23T07:55:20;22.50;99.90
48535;DHT22;34323;52.022;5.686;2022-07-23T07:57:46;22.70;99.90
48535;DHT22;34323;52.022;5.686;2022-07-23T08:00:12;22.90;99.90
48535;DHT22;34323;52.022;5.686;2022-07-23T08:02:49;22.40;99.90
48535;DHT22;34323;52.022;5.686;2022-07-23T08:05:19;22.80;99.90
48535;DHT22;34323;52.022;5.686;2022-07-23T08:07:45;23.10;99.90
48535;DHT22;34323;52.022;5.686;2022-07-23T08:10:11;23.10;99.90
48535;DHT22;34323;52.022;5.686;2022-07-23T08:12:47;22.90;99.90
48535;DHT22;34323;52.022;5.686;2022-07-23T08:15:14;22.60;99.90
48535;DHT22;34323;52.022;5.686;2022-07-23T08:17:42;22.70;99.90
48535;DHT22;34323;52.022;5.686;2022-07-23T08:20:10;23.00;99.90
48535;DHT22;34323;52.022;5.686;2022-07-23T08:25:26;23.40;99.90
48535;DHT22;34323;52.022;5.686;2022-07-23T08:27:53;23.30;99.90
48535;DHT22;34323;52.022;5.686;2022-07-23T08:30:19;23.10;99.90
48535;DHT22;34323;52.022;5.686;2022-07-23T08:35:43;23.60;99.90
48535;DHT22;34323;52.022;5.686;2022-07-23T08:38:09;23.80;99.90
48535;DHT22;34323;52.022;5.686;2022-07-23T08:40:38;23.60;99.90
48535;DHT22;34323;52.022;5.686;2022-07-23T08:43:07;23.60;99.90
48535;DHT22;34323;52.022;5.686;2022-07-23T08:45:36;23.80;99.90
48535;DHT22;34323;52.022;5.686;2022-07-23T08:48:03;24.40;99.90
48535;DHT22;34323;52.022;5.686;2022-07-23T08:50:30;24.20;99.90
48535;DHT22;34323;52.022;5.686;2022-07-23T08:52:59;24.40;99.90
48535;DHT22;34323;52.022;5.686;2022-07-23T08:55:25;24.50;99.90
48535;DHT22;34323;52.022;5.686;2022-07-23T08:57:52;24.40;99.90
48535;DHT22;34323;52.022;5.686;2022-07-23T09:00:20;24.60;99.70
48535;DHT22;34323;52.022;5.686;2022-07-23T09:02:47;24.40;99.90
48535;DHT22;34323;52.022;5.686;2022-07-23T09:05:14;24.50;99.90
48535;DHT22;34323;52.022;5.686;2022-07-23T09:10:49;24.60;99.90
48535;DHT22;34323;52.022;5.686;2022-07-23T09:15:51;24.90;99.70
48535;DHT22;34323;52.022;5.686;2022-07-23T09:18:17;25.20;99.90
48535;DHT22;34323;52.022;5.686;2022-07-23T09:20:46;25.10;99.50
48535;DHT22;34323;52.022;5.686;2022-07-23T09:23:12;25.30;99.90
48535;DHT22;34323;52.022;5.686;2022-07-23T09:25:38;25.80;99.90
48535;DHT22;34323;52.022;5.686;2022-07-23T09:28:04;26.00;99.90
48535;DHT22;34323;52.022;5.686;2022-07-23T09:30:33;25.80;99.40
48535;DHT22;34323;52.022;5.686;2022-07-23T09:33:11;26.10;99.40
48535;DHT22;34323;52.022;5.686;2022-07-23T09:35:53;25.90;99.30
48535;DHT22;34323;52.022;5.686;2022-07-23T09:38:22;25.80;99.20
48535;DHT22;34323;52.022;5.686;2022-07-23T09:41:08;26.10;97.90
48535;DHT22;34323;52.022;5.686;2022-07-23T09:43:34;26.10;98.20
48535;DHT22;34323;52.022;5.686;2022-07-23T09:48:50;26.50;97.90
48535;DHT22;34323;52.022;5.686;2022-07-23T09:51:17;26.40;97.80
48535;DHT22;34323;52.022;5.686;2022-07-23T09:53:53;26.00;97.40
48535;DHT22;34323;52.022;5.686;2022-07-23T09:56:20;26.50;97.60
48535;DHT22;34323;52.022;5.686;2022-07-23T09:58:49;26.60;97.20
48535;DHT22;34323;52.022;5.686;2022-07-23T10:01:16;26.30;98.70
48535;DHT22;34323;52.022;5.686;2022-07-23T10:03:42;26.30;97.90
48535;DHT22;34323;52.022;5.686;2022-07-23T10:06:09;26.20;98.30
48535;DHT22;34323;52.022;5.686;2022-07-23T10:08:36;26.30;98.20
48535;DHT22;34323;52.022;5.686;2022-07-23T10:11:06;26.80;98.40
48535;DHT22;34323;52.022;5.686;2022-07-23T10:13:32;27.30;97.70
48535;DHT22;34323;52.022;5.686;2022-07-23T10:16:16;26.90;97.40
48535;DHT22;34323;52.022;5.686;2022-07-23T10:18:43;26.80;97.40
48535;DHT22;34323;52.022;5.686;2022-07-23T10:21:10;27.00;98.80
48535;DHT22;34323;52.022;5.686;2022-07-23T10:23:51;27.10;97.60
48535;DHT22;34323;52.022;5.686;2022-07-23T10:29:50;27.50;98.40
48535;DHT22;34323;52.022;5.686;2022-07-23T10:36:01;27.50;97.90
48535;DHT22;34323;52.022;5.686;2022-07-23T10:41:04;27.40;96.90
48535;DHT22;34323;52.022;5.686;2022-07-23T10:43:30;27.80;97.50
48535;DHT22;34323;52.022;5.686;2022-07-23T10:46:21;28.30;96.80
48535;DHT22;34323;52.022;5.686;2022-07-23T10:48:42;28.20;97.00
48535;DHT22;34323;52.022;5.686;2022-07-23T10:51:10;28.20;96.30
48535;DHT22;34323;52.022;5.686;2022-07-23T10:53:53;28.20;96.00
48535;DHT22;34323;52.022;5.686;2022-07-23T10:56:50;28.20;96.40
48535;DHT22;34323;52.022;5.686;2022-07-23T10:59:29;28.40;95.60
48535;DHT22;34323;52.022;5.686;2022-07-23T11:02:21;28.60;96.00
48535;DHT22;34323;52.022;5.686;2022-07-23T11:04:49;28.90;95.50
48535;DHT22;34323;52.022;5.686;2022-07-23T11:07:16;28.60;96.00
48535;DHT22;34323;52.022;5.686;2022-07-23T11:09:43;28.80;96.60
48535;DHT22;34323;52.022;5.686;2022-07-23T11:17:26;29.20;95.70
48535;DHT22;34323;52.022;5.686;2022-07-23T11:25:10;29.00;95.60
48535;DHT22;34323;52.022;5.686;2022-07-23T11:27:44;29.10;95.30
48535;DHT22;34323;52.022;5.686;2022-07-23T11:32:53;29.40;95.00
48535;DHT22;34323;52.022;5.686;2022-07-23T11:35:27;29.50;95.40
48535;DHT22;34323;52.022;5.686;2022-07-23T11:38:03;29.50;95.70
48535;DHT22;34323;52.022;5.686;2022-07-23T11:40:29;29.70;95.10
48535;DHT22;34323;52.022;5.686;2022-07-23T11:42:59;29.50;94.80
48535;DHT22;34323;52.022;5.686;2022-07-23T11:45:42;29.90;94.50
48535;DHT22;34323;52.022;5.686;2022-07-23T11:48:16;30.10;93.70
48535;DHT22;34323;52.022;5.686;2022-07-23T11:50:42;30.00;94.90
48535;DHT22;34323;52.022;5.686;2022-07-23T11:53:07;29.90;94.40
48535;DHT22;34323;52.022;5.686;2022-07-23T11:55:33;30.10;93.60
48535;DHT22;34323;52.022;5.686;2022-07-23T11:57:59;30.40;93.70
48535;DHT22;34323;52.022;5.686;2022-07-23T12:00:28;30.50;94.20
48535;DHT22;34323;52.022;5.686;2022-07-23T12:02:57;30.60;94.50
48535;DHT22;34323;52.022;5.686;2022-07-23T12:05:32;31.00;93.90
48535;DHT22;34323;52.022;5.686;2022-07-23T12:07:59;30.60;93.10
48535;DHT22;34323;52.022;5.686;2022-07-23T12:13:01;30.70;93.10
48535;DHT22;34323;52.022;5.686;2022-07-23T12:15:30;30.20;92.90
48535;DHT22;34323;52.022;5.686;2022-07-23T12:17:57;30.10;93.00
48535;DHT22;34323;52.022;5.686;2022-07-23T12:20:25;30.60;93.70
48535;DHT22;34323;52.022;5.686;2022-07-23T12:22:57;31.10;94.10
48535;DHT22;34323;52.022;5.686;2022-07-23T12:25:25;30.90;93.00
48535;DHT22;34323;52.022;5.686;2022-07-23T12:28:15;31.00;93.40
48535;DHT22;34323;52.022;5.686;2022-07-23T12:30:44;31.50;93.70
48535;DHT22;34323;52.022;5.686;2022-07-23T12:33:34;31.50;93.10
48535;DHT22;34323;52.022;5.686;2022-07-23T12:36:01;31.80;93.10
48535;DHT22;34323;52.022;5.686;2022-07-23T12:38:38;31.50;93.80
48535;DHT22;34323;52.022;5.686;2022-07-23T12:41:05;31.60;94.20
48535;DHT22;34323;52.022;5.686;2022-07-23T12:43:33;31.60;93.90
48535;DHT22;34323;52.022;5.686;2022-07-23T12:46:06;31.60;93.30
48535;DHT22;34323;52.022;5.686;2022-07-23T12:48:37;31.80;93.70
48535;DHT22;34323;52.022;5.686;2022-07-23T12:51:08;31.50;94.20
48535;DHT22;34323;52.022;5.686;2022-07-23T12:53:48;31.20;93.20
48535;DHT22;34323;52.022;5.686;2022-07-23T12:56:17;31.40;92.70
48535;DHT22;34323;52.022;5.686;2022-07-23T13:01:25;31.70;93.20
48535;DHT22;34323;52.022;5.686;2022-07-23T13:06:34;32.00;93.10
48535;DHT22;34323;52.022;5.686;2022-07-23T13:09:01;31.60;92.40
48535;DHT22;34323;52.022;5.686;2022-07-23T13:11:27;31.00;93.70
48535;DHT22;34323;52.022;5.686;2022-07-23T13:13:52;30.90;93.20
48535;DHT22;34323;52.022;5.686;2022-07-23T13:16:18;31.30;93.80
48535;DHT22;34323;52.022;5.686;2022-07-23T13:18:44;31.30;93.30
48535;DHT22;34323;52.022;5.686;2022-07-23T13:21:09;30.80;93.00
48535;DHT22;34323;52.022;5.686;2022-07-23T13:23:36;30.50;92.60
48535;DHT22;34323;52.022;5.686;2022-07-23T13:26:02;30.60;94.10
48535;DHT22;34323;52.022;5.686;2022-07-23T13:28:28;30.80;94.30
48535;DHT22;34323;52.022;5.686;2022-07-23T13:30:54;31.40;93.60
48535;DHT22;34323;52.022;5.686;2022-07-23T13:33:22;32.20;93.10
48535;DHT22;34323;52.022;5.686;2022-07-23T13:35:49;32.50;94.10
48535;DHT22;34323;52.022;5.686;2022-07-23T13:38:15;33.30;93.50
48535;DHT22;34323;52.022;5.686;2022-07-23T13:40:44;34.40;94.00
48535;DHT22;34323;52.022;5.686;2022-07-23T13:43:11;35.50;93.10
48535;DHT22;34323;52.022;5.686;2022-07-23T13:45:38;36.50;92.40
48535;DHT22;34323;52.022;5.686;2022-07-23T13:48:04;37.70;91.90
48535;DHT22;34323;52.022;5.686;2022-07-23T13:50:30;38.40;91.50
48535;DHT22;34323;52.022;5.686;2022-07-23T13:52:56;39.60;91.90
48535;DHT22;34323;52.022;5.686;2022-07-23T13:55:22;40.50;90.30
48535;DHT22;34323;52.022;5.686;2022-07-23T13:57:48;41.80;88.70
48535;DHT22;34323;52.022;5.686;2022-07-23T14:00:14;42.50;86.90
48535;DHT22;34323;52.022;5.686;2022-07-23T14:02:40;43.20;86.60
48535;DHT22;34323;52.022;5.686;2022-07-23T14:05:08;43.70;84.30
48535;DHT22;34323;52.022;5.686;2022-07-23T14:07:35;44.00;84.30
48535;DHT22;34323;52.022;5.686;2022-07-23T14:10:03;43.80;85.10
48535;DHT22;34323;52.022;5.686;2022-07-23T14:12:29;41.80;82.40
48535;DHT22;34323;52.022;5.686;2022-07-23T14:14:54;40.00;83.40
48535;DHT22;34323;52.022;5.686;2022-07-23T14:17:20;39.60;88.00
48535;DHT22;34323;52.022;5.686;2022-07-23T14:19:46;40.00;85.10
48535;DHT22;34323;52.022;5.686;2022-07-23T14:22:11;39.30;85.00
48535;DHT22;34323;52.022;5.686;2022-07-23T14:24:37;39.20;86.50
48535;DHT22;34323;52.022;5.686;2022-07-23T14:27:04;38.90;84.50
48535;DHT22;34323;52.022;5.686;2022-07-23T14:29:30;39.90;87.30
48535;DHT22;34323;52.022;5.686;2022-07-23T14:31:56;40.40;85.90
48535;DHT22;34323;52.022;5.686;2022-07-23T14:34:22;41.10;83.20
48535;DHT22;34323;52.022;5.686;2022-07-23T14:36:48;40.90;83.40
48535;DHT22;34323;52.022;5.686;2022-07-23T14:39:13;40.00;85.00
48535;DHT22;34323;52.022;5.686;2022-07-23T14:41:39;39.80;83.30
48535;DHT22;34323;52.022;5.686;2022-07-23T14:44:05;39.50;83.70
48535;DHT22;34323;52.022;5.686;2022-07-23T14:46:31;39.10;83.20
48535;DHT22;34323;52.022;5.686;2022-07-23T14:48:57;38.50;83.20
48535;DHT22;34323;52.022;5.686;2022-07-23T14:51:23;37.50;84.20
48535;DHT22;34323;52.022;5.686;2022-07-23T14:53:49;36.10;85.70
48535;DHT22;34323;52.022;5.686;2022-07-23T14:56:15;35.30;88.70
48535;DHT22;34323;52.022;5.686;2022-07-23T14:58:42;35.00;89.00
48535;DHT22;34323;52.022;5.686;2022-07-23T15:01:08;34.50;86.80
48535;DHT22;34323;52.022;5.686;2022-07-23T15:03:34;33.80;88.50
48535;DHT22;34323;52.022;5.686;2022-07-23T15:06:00;33.40;89.20
48535;DHT22;34323;52.022;5.686;2022-07-23T15:08:25;33.80;89.60
48535;DHT22;34323;52.022;5.686;2022-07-23T15:10:51;34.30;88.90
48535;DHT22;34323;52.022;5.686;2022-07-23T15:13:18;34.50;87.30
48535;DHT22;34323;52.022;5.686;2022-07-23T15:15:44;34.30;87.00
48535;DHT22;34323;52.022;5.686;2022-07-23T15:18:11;34.00;88.60
48535;DHT22;34323;52.022;5.686;2022-07-23T15:20:37;34.60;87.70
48535;DHT22;34323;52.022;5.686;2022-07-23T15:23:06;34.70;87.40
48535;DHT22;34323;52.022;5.686;2022-07-23T15:25:32;34.90;86.60
48535;DHT22;34323;52.022;5.686;2022-07-23T15:27:58;35.10;86.60
48535;DHT22;34323;52.022;5.686;2022-07-23T15:30:28;34.10;86.50
48535;DHT22;34323;52.022;5.686;2022-07-23T15:32:53;34.30;88.90
48535;DHT22;34323;52.022;5.686;2022-07-23T15:35:19;34.70;88.20
48535;DHT22;34323;52.022;5.686;2022-07-23T15:37:45;34.30;85.90
48535;DHT22;34323;52.022;5.686;2022-07-23T15:40:11;34.30;87.00
48535;DHT22;34323;52.022;5.686;2022-07-23T15:42:37;35.10;88.70
48535;DHT22;34323;52.022;5.686;2022-07-23T15:45:04;35.70;89.10
48535;DHT22;34323;52.022;5.686;2022-07-23T15:47:30;35.80;87.50
48535;DHT22;34323;52.022;5.686;2022-07-23T15:49:56;36.00;85.90
48535;DHT22;34323;52.022;5.686;2022-07-23T15:52:22;36.30;87.30
48535;DHT22;34323;52.022;5.686;2022-07-23T15:54:48;36.20;85.20
48535;DHT22;34323;52.022;5.686;2022-07-23T15:57:14;35.70;87.90
48535;DHT22;34323;52.022;5.686;2022-07-23T15:59:40;35.70;86.10
48535;DHT22;34323;52.022;5.686;2022-07-23T16:02:06;35.60;86.70
48535;DHT22;34323;52.022;5.686;2022-07-23T16:04:32;35.20;85.30
48535;DHT22;34323;52.022;5.686;2022-07-23T16:06:58;34.50;86.70
48535;DHT22;34323;52.022;5.686;2022-07-23T16:09:24;33.40;86.70
48535;DHT22;34323;52.022;5.686;2022-07-23T16:11:51;33.20;87.40
48535;DHT22;34323;52.022;5.686;2022-07-23T16:14:18;32.50;87.80